This is the latest recevied weather packets stored in our database for station/object DC0PP-10. If no packets are shown the sender has not sent any weather packets the latest 10 day(s).
| Time | Temp. | Humidity | Pressure | Rain* | Wind** | Luminosity | Snow |
|---|---|---|---|---|---|---|---|
| 1777348531 | 10.56° C | 71% | 1017.6 hPa | - | - | - | - |
| 1777347631 | 10.56° C | 71% | 1017.7 hPa | - | - | - | - |
| 1777346730 | 11.67° C | 66% | 1017.7 hPa | - | - | - | - |
| 1777345830 | 12.22° C | 64% | 1017.7 hPa | - | - | - | - |
| 1777344930 | 12.22° C | 62% | 1017.6 hPa | - | - | - | - |
| 1777344030 | 12.78° C | 60% | 1017.6 hPa | - | - | - | - |
| 1777343130 | 12.78° C | 57% | 1017.6 hPa | - | - | - | - |
| 1777342230 | 13.89° C | 54% | 1017.7 hPa | - | - | - | - |
| 1777341329 | 13.89° C | 50% | 1017.5 hPa | - | - | - | - |
| 1777340429 | 14.44° C | 48% | 1017.5 hPa | - | - | - | - |
| 1777339529 | 14.44° C | 48% | 1017.5 hPa | - | - | - | - |
| 1777338629 | 14.44° C | 49% | 1017.7 hPa | - | - | - | - |
| 1777337729 | 15° C | 48% | 1017.8 hPa | - | - | - | - |
| 1777336828 | 15° C | 46% | 1017.8 hPa | - | - | - | - |
| 1777335932 | 15° C | 46% | 1018 hPa | - | - | - | - |
| 1777335031 | 15° C | 46% | 1018.1 hPa | - | - | - | - |
| 1777334131 | 15° C | 49% | 1018.1 hPa | - | - | - | - |
| 1777333231 | 15° C | 48% | 1018.1 hPa | - | - | - | - |
| 1777332331 | 13.89° C | 53% | 1018.2 hPa | - | - | - | - |
| 1777331431 | 13.89° C | 54% | 1018.3 hPa | - | - | - | - |
| 1777330531 | 13.89° C | 55% | 1018.3 hPa | - | - | - | - |
| 1777329631 | 13.89° C | 56% | 1018.4 hPa | - | - | - | - |
| 1777328730 | 13.89° C | 56% | 1018.5 hPa | - | - | - | - |
| 1777327830 | 13.89° C | 57% | 1018.6 hPa | - | - | - | - |
| 1777326930 | 13.89° C | 56% | 1018.5 hPa | - | - | - | - |
* Rain since midnight (hover to see other rain measurements)
** Current wind speed in m/s (hover to see current wind gust speed)